createdAt,value
2022-12-19T00:00:42.679Z,90.45
2022-12-19T00:01:43.004Z,90.03
2022-12-19T00:02:45.454Z,90.03
2022-12-19T00:03:45.308Z,90.34
2022-12-19T00:04:44.084Z,90.55
2022-12-19T00:05:46.295Z,90.87
2022-12-19T00:06:44.553Z,90.76
2022-12-19T00:07:46.808Z,91.50
2022-12-19T00:08:45.019Z,90.97
2022-12-19T00:09:45.355Z,90.97
2022-12-19T00:10:45.583Z,91.71
2022-12-19T00:11:45.645Z,91.60
2022-12-19T00:12:47.919Z,91.08
2022-12-19T00:13:46.173Z,90.87
2022-12-19T00:14:46.522Z,91.03
2022-12-19T00:15:46.807Z,91.03
2022-12-19T00:16:47.091Z,91.14
2022-12-19T00:17:49.405Z,91.91
2022-12-19T00:18:49.604Z,91.81
2022-12-19T00:19:49.838Z,91.81
2022-12-19T00:20:48.090Z,91.81
2022-12-19T00:21:48.372Z,92.33
2022-12-19T00:22:51.045Z,92.54
2022-12-19T00:23:49.534Z,92.02
2022-12-19T00:24:49.397Z,91.60
2022-12-19T00:25:49.730Z,91.60
2022-12-19T00:26:49.859Z,92.23
2022-12-19T00:27:50.359Z,92.96
2022-12-19T00:28:50.897Z,92.86
2022-12-19T00:29:50.441Z,92.96
2022-12-19T00:30:50.266Z,92.96
2022-12-19T00:31:50.328Z,92.76
2022-12-19T00:32:51.746Z,92.86
2022-12-19T00:33:52.947Z,93.38
2022-12-19T00:34:52.198Z,92.96
2022-12-19T00:35:52.555Z,93.38
2022-12-19T00:36:52.846Z,93.27
2022-12-19T00:37:52.138Z,93.17
2022-12-19T00:38:52.429Z,93.17
2022-12-19T00:39:54.237Z,93.59
2022-12-19T00:40:54.040Z,93.49
2022-12-19T00:41:54.346Z,93.49
2022-12-19T00:42:55.106Z,94.01
2022-12-19T00:43:53.625Z,94.22
2022-12-19T00:44:54.016Z,94.32
2022-12-19T00:45:54.900Z,94.54
2022-12-19T00:46:55.389Z,94.64
2022-12-19T00:47:56.786Z,94.74
2022-12-19T00:48:57.511Z,95.06
2022-12-19T00:49:56.804Z,94.64
2022-12-19T00:50:55.203Z,94.43
2022-12-19T00:51:57.060Z,94.85
2022-12-19T00:52:56.777Z,95.48
2022-12-19T00:53:56.055Z,95.79
2022-12-19T00:54:58.405Z,95.68
2022-12-19T00:55:57.696Z,95.68
2022-12-19T00:56:56.950Z,96.00
2022-12-19T00:57:57.221Z,96.31
2022-12-19T00:58:57.314Z,96.42
2022-12-19T00:59:57.567Z,95.68
2022-12-19T01:00:59.354Z,96.31
2022-12-19T01:01:59.222Z,96.73
2022-12-19T01:03:00.569Z,97.05
2022-12-19T01:04:27.233Z,96.31
2022-12-19T01:04:59.765Z,96.42
2022-12-19T01:06:00.127Z,97.05
2022-12-19T01:07:02.522Z,96.73
2022-12-19T01:08:00.841Z,96.73
2022-12-19T01:09:00.184Z,96.53
2022-12-19T01:10:01.414Z,96.73
2022-12-19T01:11:02.610Z,97.16
2022-12-19T01:12:00.920Z,97.58
2022-12-19T01:13:01.228Z,97.16
2022-12-19T01:14:01.672Z,97.05
2022-12-19T01:15:04.321Z,96.94
2022-12-19T01:16:02.325Z,96.94
2022-12-19T01:17:01.640Z,97.26
2022-12-19T01:18:03.404Z,97.78
2022-12-19T01:19:02.215Z,97.58
2022-12-19T01:20:02.338Z,97.78
2022-12-19T01:21:27.582Z,97.74
2022-12-19T01:22:31.494Z,97.89
2022-12-19T01:23:29.514Z,97.63
2022-12-19T01:24:28.101Z,98.05
2022-12-19T01:25:29.090Z,98.05
2022-12-19T01:26:29.553Z,98.16
2022-12-19T01:27:30.602Z,98.05
2022-12-19T01:28:31.724Z,98.37
2022-12-19T01:29:37.204Z,98.26
2022-12-19T01:30:33.743Z,98.37
2022-12-19T01:31:30.203Z,98.47
2022-12-19T01:32:30.689Z,98.37
2022-12-19T01:33:30.304Z,98.68
2022-12-19T01:35:45.729Z,99.21
2022-12-19T01:36:29.051Z,99.41
2022-12-19T01:37:29.865Z,99.63
2022-12-19T01:38:29.365Z,99.41
2022-12-19T01:39:30.413Z,99.52
2022-12-19T01:40:31.370Z,99.73
2022-12-19T01:41:29.570Z,99.63
2022-12-19T01:42:30.788Z,99.84
2022-12-19T01:43:30.164Z,99.99
2022-12-19T01:44:31.528Z,99.99
2022-12-19T01:45:34.570Z,99.99
2022-12-19T01:46:32.802Z,99.99
2022-12-19T01:47:33.529Z,99.99
2022-12-19T01:48:31.926Z,99.73
2022-12-19T01:49:34.195Z,99.84
2022-12-19T01:50:33.445Z,99.99
2022-12-19T01:51:34.687Z,99.99
2022-12-19T01:52:34.984Z,99.99
2022-12-19T01:53:35.305Z,99.99
2022-12-19T01:54:35.492Z,99.99
2022-12-19T01:55:33.766Z,99.99
2022-12-19T01:56:34.000Z,99.79
2022-12-19T01:57:34.337Z,99.99
2022-12-19T01:58:36.734Z,99.90
2022-12-19T01:59:35.202Z,99.99
2022-12-19T02:00:37.129Z,99.99
2022-12-19T02:01:37.314Z,99.90
2022-12-19T02:02:35.593Z,99.99
2022-12-19T02:03:36.749Z,99.99
2022-12-19T02:04:38.108Z,99.99
2022-12-19T02:05:36.314Z,99.99
2022-12-19T02:06:37.547Z,99.99
2022-12-19T02:07:37.004Z,99.99
2022-12-19T02:08:37.296Z,99.99
2022-12-19T02:09:38.541Z,99.99
2022-12-19T02:10:37.848Z,99.99
2022-12-19T02:11:39.107Z,99.99
2022-12-19T02:12:39.319Z,99.99
2022-12-19T02:13:40.053Z,99.99
2022-12-19T02:14:40.483Z,99.99
2022-12-19T02:15:39.282Z,99.99
2022-12-19T02:16:39.590Z,99.99
2022-12-19T02:17:41.912Z,99.99
2022-12-19T02:18:40.227Z,99.99
2022-12-19T02:19:40.508Z,99.99
2022-12-19T02:20:41.698Z,99.99
2022-12-19T02:21:42.867Z,99.99
2022-12-19T02:22:41.194Z,99.99
2022-12-19T02:23:43.462Z,99.99
2022-12-19T02:24:41.700Z,99.99
2022-12-19T02:25:43.954Z,99.99
2022-12-19T02:26:44.206Z,99.99
2022-12-19T02:27:42.444Z,99.99
2022-12-19T02:28:42.849Z,99.99
2022-12-19T02:29:44.088Z,99.99
2022-12-19T02:30:45.184Z,99.99
2022-12-19T02:31:45.544Z,99.99
2022-12-19T02:32:45.742Z,99.99
2022-12-19T02:33:46.506Z,99.99
2022-12-19T02:34:45.255Z,99.99
2022-12-19T02:35:45.345Z,99.99
2022-12-19T02:36:46.878Z,99.99
2022-12-19T02:37:46.618Z,99.99
2022-12-19T02:38:44.896Z,99.99
2022-12-19T02:39:46.217Z,99.99
2022-12-19T02:40:45.539Z,99.99
2022-12-19T02:41:47.867Z,99.99
2022-12-19T02:42:46.157Z,99.99
2022-12-19T02:43:47.348Z,99.99
2022-12-19T02:44:46.780Z,99.99
2022-12-19T02:45:48.091Z,99.99
2022-12-19T02:46:48.485Z,99.99
2022-12-19T02:47:47.808Z,99.99
2022-12-19T02:48:50.101Z,99.99
2022-12-19T02:49:48.348Z,99.99
2022-12-19T02:50:50.676Z,99.99
2022-12-19T02:51:50.049Z,99.99
2022-12-19T02:52:49.394Z,99.99
2022-12-19T02:53:49.748Z,99.99
2022-12-19T02:54:50.189Z,99.99
2022-12-19T02:55:50.574Z,99.99
2022-12-19T02:56:50.929Z,99.99
2022-12-19T02:57:53.201Z,99.99
2022-12-19T02:58:52.522Z,99.99
2022-12-19T02:59:52.803Z,99.99
2022-12-19T03:00:54.070Z,99.99
2022-12-19T03:01:52.462Z,99.74
2022-12-19T03:02:56.129Z,99.99
2022-12-19T03:03:55.106Z,99.74
2022-12-19T03:04:53.357Z,99.43
2022-12-19T03:05:54.627Z,99.64
2022-12-19T03:06:53.978Z,99.85
2022-12-19T03:07:56.371Z,99.99
2022-12-19T03:08:55.602Z,99.99
2022-12-19T03:09:54.849Z,99.85
2022-12-19T03:10:55.120Z,99.43
2022-12-19T03:11:56.192Z,99.22
2022-12-19T03:12:55.471Z,99.54
2022-12-19T03:13:57.682Z,99.11
2022-12-19T03:14:57.933Z,99.01
2022-12-19T03:15:56.211Z,98.49
2022-12-19T03:16:56.517Z,98.38
2022-12-19T03:17:57.812Z,98.59
2022-12-19T03:18:59.020Z,99.01
2022-12-19T03:19:59.265Z,99.32
2022-12-19T03:20:58.448Z,99.43
2022-12-19T03:21:58.853Z,99.32
2022-12-19T03:23:00.123Z,99.43
2022-12-19T03:23:58.383Z,99.22
2022-12-19T03:24:58.900Z,99.32
2022-12-19T03:25:58.668Z,98.80
2022-12-19T03:26:59.927Z,99.01
2022-12-19T03:28:01.217Z,99.11
2022-12-19T03:29:01.452Z,99.01
2022-12-19T03:29:59.852Z,98.80
2022-12-19T03:31:00.146Z,98.80
2022-12-19T03:32:00.517Z,98.80
2022-12-19T03:33:02.317Z,98.91
2022-12-19T03:34:02.152Z,98.38
2022-12-19T03:35:02.567Z,98.18
2022-12-19T03:36:02.511Z,98.18
2022-12-19T03:37:03.736Z,97.96
2022-12-19T03:38:04.090Z,98.18
2022-12-19T03:39:02.374Z,98.59
2022-12-19T03:40:03.551Z,98.49
2022-12-19T03:41:03.026Z,98.69
2022-12-19T03:42:03.965Z,99.01
2022-12-19T03:43:05.462Z,98.49
2022-12-19T03:44:03.823Z,98.55
2022-12-19T03:45:04.957Z,98.65
2022-12-19T03:46:05.259Z,98.75
2022-12-19T03:47:05.343Z,98.65
2022-12-19T03:48:05.246Z,98.86
2022-12-19T03:49:05.973Z,98.86
2022-12-19T03:50:06.135Z,98.97
2022-12-19T03:51:06.241Z,98.65
2022-12-19T03:52:06.969Z,98.97
2022-12-19T03:53:06.273Z,98.97
2022-12-19T03:54:07.580Z,99.18
2022-12-19T03:55:07.329Z,99.59
2022-12-19T03:56:07.572Z,99.49
2022-12-19T03:57:07.807Z,99.38
2022-12-19T03:58:08.093Z,99.38
2022-12-19T03:59:08.309Z,99.38
2022-12-19T04:00:08.829Z,99.59
2022-12-19T04:01:08.390Z,99.59
2022-12-19T04:02:08.841Z,99.49
2022-12-19T04:03:08.694Z,99.70
2022-12-19T04:04:08.995Z,99.99
2022-12-19T04:05:10.392Z,99.99
2022-12-19T04:06:10.196Z,99.49
2022-12-19T04:07:09.921Z,99.59
2022-12-19T04:08:10.200Z,99.70
2022-12-19T04:09:10.329Z,99.59
2022-12-19T04:10:10.782Z,99.70
2022-12-19T04:11:11.058Z,99.91
2022-12-19T04:12:11.197Z,99.59
2022-12-19T04:13:11.561Z,99.07
2022-12-19T04:14:11.772Z,99.59
2022-12-19T04:15:12.003Z,99.80
2022-12-19T04:16:12.274Z,99.99
2022-12-19T04:17:12.522Z,99.99
2022-12-19T04:18:12.815Z,99.99
2022-12-19T04:19:13.176Z,99.99
2022-12-19T04:20:13.819Z,99.99
2022-12-19T04:21:13.558Z,99.99
2022-12-19T04:22:14.769Z,99.91
2022-12-19T04:23:15.076Z,99.99
2022-12-19T04:24:13.425Z,99.91
2022-12-19T04:25:14.610Z,99.80
2022-12-19T04:26:13.928Z,99.28
2022-12-19T04:27:15.192Z,99.80
2022-12-19T04:28:16.273Z,99.91
2022-12-19T04:29:14.541Z,99.59
2022-12-19T04:30:15.717Z,99.28
2022-12-19T04:31:17.130Z,99.38
2022-12-19T04:32:17.012Z,99.70
2022-12-19T04:33:15.866Z,99.28
2022-12-19T04:34:16.221Z,99.07
2022-12-19T04:35:17.449Z,98.75
2022-12-19T04:36:18.690Z,99.18
2022-12-19T04:37:18.990Z,99.07
2022-12-19T04:38:18.274Z,98.24
2022-12-19T04:39:18.519Z,98.34
2022-12-19T04:40:18.569Z,98.13
2022-12-19T04:41:17.995Z,97.92
2022-12-19T04:42:20.433Z,98.24
2022-12-19T04:43:18.694Z,98.24
2022-12-19T04:44:21.037Z,98.75
2022-12-19T04:45:21.296Z,98.75
2022-12-19T04:46:21.573Z,98.55
2022-12-19T04:47:20.043Z,98.55
2022-12-19T04:48:22.706Z,98.55
2022-12-19T04:49:22.485Z,98.55
2022-12-19T04:50:21.588Z,98.34
2022-12-19T04:51:20.866Z,98.44
2022-12-19T04:52:21.162Z,98.08
2022-12-19T04:53:22.960Z,97.77
2022-12-19T04:54:22.691Z,97.88
2022-12-19T04:55:22.069Z,97.67
2022-12-19T04:56:22.570Z,97.77
2022-12-19T04:57:22.336Z,97.45
2022-12-19T04:58:23.627Z,97.67
2022-12-19T04:59:23.884Z,97.35
2022-12-19T05:00:24.197Z,97.45
2022-12-19T05:01:23.697Z,97.25
2022-12-19T05:02:25.657Z,97.35
2022-12-19T05:03:24.644Z,97.35
2022-12-19T05:04:23.966Z,97.67
2022-12-19T05:05:24.192Z,98.08
2022-12-19T05:06:24.594Z,97.98
2022-12-19T05:07:26.591Z,97.81
2022-12-19T05:08:26.675Z,97.67
2022-12-19T05:09:25.215Z,97.14
2022-12-19T05:10:25.058Z,96.83
2022-12-19T05:11:26.844Z,97.04
2022-12-19T05:12:27.175Z,97.25
2022-12-19T05:13:26.012Z,97.25
2022-12-19T05:14:26.294Z,97.35
2022-12-19T05:15:26.569Z,96.41
2022-12-19T05:16:28.886Z,96.41
2022-12-19T05:17:28.143Z,96.72
2022-12-19T05:18:27.532Z,96.62
2022-12-19T05:19:27.799Z,96.41
2022-12-19T05:20:30.098Z,96.62
2022-12-19T05:21:29.333Z,96.51
2022-12-19T05:22:30.621Z,96.72
2022-12-19T05:23:28.899Z,96.41
2022-12-19T05:24:29.198Z,96.62
2022-12-19T05:25:29.580Z,96.72
2022-12-19T05:26:29.912Z,96.20
2022-12-19T05:27:31.125Z,96.94
2022-12-19T05:28:32.344Z,97.14
2022-12-19T05:29:30.595Z,97.04
2022-12-19T05:30:30.924Z,97.35
2022-12-19T05:31:32.163Z,96.83
2022-12-19T05:32:31.472Z,96.58
2022-12-19T05:33:33.231Z,96.68
2022-12-19T05:34:34.005Z,96.89
2022-12-19T05:35:32.241Z,97.00
2022-12-19T05:36:34.587Z,96.89
2022-12-19T05:37:35.047Z,96.89
2022-12-19T05:38:35.859Z,96.68
2022-12-19T05:39:33.647Z,96.68
2022-12-19T05:40:33.951Z,97.20
2022-12-19T05:41:34.253Z,96.68
2022-12-19T05:42:34.531Z,97.00
2022-12-19T05:43:35.888Z,96.68
2022-12-19T05:44:36.628Z,97.00
2022-12-19T05:45:36.440Z,97.10
2022-12-19T05:46:37.617Z,97.52
2022-12-19T05:47:37.970Z,97.62
2022-12-19T05:48:35.925Z,97.62
2022-12-19T05:49:37.205Z,98.04
2022-12-19T05:50:36.475Z,97.94
2022-12-19T05:51:39.186Z,97.72
2022-12-19T05:52:37.857Z,98.04
2022-12-19T05:53:39.212Z,98.35
2022-12-19T05:54:37.547Z,98.56
2022-12-19T05:55:38.784Z,98.77
2022-12-19T05:56:39.018Z,98.88
2022-12-19T05:57:40.397Z,98.56
2022-12-19T05:58:40.348Z,98.77
2022-12-19T05:59:38.619Z,99.29
2022-12-19T06:00:40.999Z,99.40
2022-12-19T06:01:39.414Z,99.71
2022-12-19T06:02:41.292Z,99.82
2022-12-19T06:03:39.767Z,99.82
2022-12-19T06:04:40.103Z,99.82
2022-12-19T06:05:43.579Z,99.99
2022-12-19T06:06:42.072Z,99.99
2022-12-19T06:07:42.690Z,99.99
2022-12-19T06:08:40.577Z,99.99
2022-12-19T06:09:42.962Z,99.99
2022-12-19T06:10:42.327Z,99.99
2022-12-19T06:11:43.274Z,99.99
2022-12-19T06:12:43.080Z,99.99
2022-12-19T06:13:42.405Z,99.99
2022-12-19T06:14:41.752Z,99.99
2022-12-19T06:15:42.127Z,99.99
2022-12-19T06:16:42.852Z,99.99
2022-12-19T06:17:42.719Z,99.99
2022-12-19T06:18:44.768Z,99.99
2022-12-19T06:19:44.963Z,99.99
2022-12-19T06:20:45.238Z,99.99
2022-12-19T06:21:48.334Z,99.99
2022-12-19T06:22:44.955Z,99.99
2022-12-19T06:23:45.287Z,99.99
2022-12-19T06:24:46.602Z,99.99
2022-12-19T06:25:44.812Z,99.99
2022-12-19T06:26:47.151Z,99.99
2022-12-19T06:27:45.434Z,99.99
2022-12-19T06:28:45.771Z,99.99
2022-12-19T06:29:46.214Z,99.99
2022-12-19T06:30:48.493Z,99.99
2022-12-19T06:31:46.854Z,99.99
2022-12-19T06:32:48.207Z,99.99
2022-12-19T06:33:49.496Z,99.99
2022-12-19T06:35:05.244Z,99.99
2022-12-19T06:35:48.117Z,99.99
2022-12-19T06:36:48.590Z,99.99
2022-12-19T06:37:48.898Z,99.99
2022-12-19T06:38:49.344Z,99.99
2022-12-19T06:39:49.649Z,99.99
2022-12-19T06:40:50.891Z,99.99
2022-12-19T06:41:51.169Z,99.99
2022-12-19T06:42:50.653Z,99.99
2022-12-19T06:43:53.426Z,99.99
2022-12-19T06:44:50.688Z,99.99
2022-12-19T06:45:53.025Z,99.99
2022-12-19T06:46:53.289Z,99.99
2022-12-19T06:47:51.771Z,99.99
2022-12-19T06:48:53.536Z,99.99
2022-12-19T06:49:53.910Z,99.99
2022-12-19T06:50:52.258Z,99.99
2022-12-19T06:51:53.527Z,99.99
2022-12-19T06:52:54.805Z,99.99
2022-12-19T06:53:53.234Z,99.99
2022-12-19T06:54:53.620Z,99.99
2022-12-19T06:55:55.256Z,99.99
2022-12-19T06:56:55.197Z,99.99
2022-12-19T06:57:54.620Z,99.99
2022-12-19T06:58:54.920Z,99.99
2022-12-19T06:59:56.203Z,99.99
2022-12-19T07:00:58.027Z,99.99
2022-12-19T07:01:55.942Z,99.99
2022-12-19T07:02:56.048Z,99.99
2022-12-19T07:03:58.352Z,99.99
2022-12-19T07:04:58.219Z,99.99
2022-12-19T07:05:57.006Z,99.99
2022-12-19T07:06:58.305Z,99.99
2022-12-19T07:07:58.694Z,99.99
2022-12-19T07:09:00.020Z,99.99
2022-12-19T07:09:58.272Z,99.99
2022-12-19T07:10:58.555Z,99.99
2022-12-19T07:11:58.979Z,99.99
2022-12-19T07:12:59.342Z,99.99
2022-12-19T07:13:59.597Z,99.99
2022-12-19T07:15:00.028Z,99.99
2022-12-19T07:16:00.332Z,99.99
2022-12-19T07:17:00.805Z,99.99
2022-12-19T07:18:03.065Z,99.99
2022-12-19T07:19:03.356Z,99.99
2022-12-19T07:20:01.686Z,99.99
2022-12-19T07:21:02.007Z,99.99
2022-12-19T07:22:04.270Z,99.99
2022-12-19T07:23:04.657Z,99.99
2022-12-19T07:24:03.970Z,99.99
2022-12-19T07:25:03.353Z,99.99
2022-12-19T07:26:04.608Z,99.99
2022-12-19T07:27:05.477Z,99.99
2022-12-19T07:28:05.685Z,99.99
2022-12-19T07:29:05.566Z,99.99
2022-12-19T07:30:04.524Z,99.99
2022-12-19T07:31:04.958Z,99.99
2022-12-19T07:32:07.363Z,99.99
2022-12-19T07:33:05.686Z,99.99
2022-12-19T07:34:06.965Z,99.99
2022-12-19T07:35:06.230Z,99.99
2022-12-19T07:36:07.536Z,99.99
2022-12-19T07:37:06.902Z,99.99
2022-12-19T07:38:07.212Z,99.99
2022-12-19T07:39:09.264Z,99.99
2022-12-19T07:40:09.581Z,99.99
2022-12-19T07:41:07.929Z,99.99
2022-12-19T07:42:09.302Z,99.99
2022-12-19T07:43:08.892Z,99.99
2022-12-19T07:44:08.675Z,99.99
2022-12-19T07:45:08.995Z,99.99
2022-12-19T07:46:11.283Z,99.99
2022-12-19T07:47:11.585Z,99.99
2022-12-19T07:48:10.634Z,99.99
2022-12-19T07:49:10.038Z,99.99
2022-12-19T07:50:10.366Z,99.99
2022-12-19T07:51:11.555Z,99.99
2022-12-19T07:52:11.107Z,99.99
2022-12-19T07:53:10.863Z,99.99
2022-12-19T07:54:12.674Z,99.99
2022-12-19T07:55:11.423Z,99.99
2022-12-19T07:56:11.748Z,99.99
2022-12-19T07:57:11.838Z,99.99
2022-12-19T07:58:14.002Z,99.99
2022-12-19T07:59:12.766Z,99.99
2022-12-19T08:00:12.509Z,99.99
2022-12-19T08:01:13.809Z,99.99
2022-12-19T08:02:14.360Z,99.99
2022-12-19T08:03:14.229Z,99.99
2022-12-19T08:04:15.434Z,99.99
2022-12-19T08:05:13.785Z,99.99
2022-12-19T08:06:13.793Z,99.99
2022-12-19T08:07:15.151Z,99.99
2022-12-19T08:08:16.420Z,99.99
2022-12-19T08:09:14.803Z,99.99
2022-12-19T08:10:15.173Z,99.99
2022-12-19T08:11:16.979Z,99.99
2022-12-19T08:12:15.832Z,99.99
2022-12-19T08:13:16.180Z,99.99
2022-12-19T08:14:17.280Z,99.99
2022-12-19T08:15:17.728Z,99.99
2022-12-19T08:16:17.992Z,99.99
2022-12-19T08:17:21.395Z,99.99
2022-12-19T08:18:17.458Z,99.99
2022-12-19T08:19:17.801Z,99.99
2022-12-19T08:20:18.138Z,99.99
2022-12-19T08:21:18.444Z,99.99
2022-12-19T08:22:19.928Z,99.99
2022-12-19T08:23:18.887Z,99.99
2022-12-19T08:24:19.116Z,99.99
2022-12-19T08:25:21.389Z,99.99
2022-12-19T08:26:19.809Z,99.99
2022-12-19T08:27:21.118Z,99.99
2022-12-19T08:28:22.310Z,99.99
2022-12-19T08:29:20.953Z,99.99
2022-12-19T08:30:21.743Z,99.99
2022-12-19T08:31:21.035Z,99.99
2022-12-19T08:32:21.956Z,99.99
2022-12-19T08:33:22.229Z,99.99
2022-12-19T08:34:21.525Z,99.99
2022-12-19T08:35:21.815Z,99.99
2022-12-19T08:36:22.160Z,99.99
2022-12-19T08:37:22.492Z,99.99
2022-12-19T08:38:23.775Z,99.99
2022-12-19T08:39:23.097Z,99.99
2022-12-19T08:40:23.718Z,99.99
2022-12-19T08:41:23.556Z,99.99
2022-12-19T08:42:23.994Z,99.99
2022-12-19T08:43:26.498Z,99.99
2022-12-19T08:44:27.401Z,99.99
2022-12-19T08:45:24.407Z,99.99
2022-12-19T08:46:25.725Z,99.99
2022-12-19T08:47:26.141Z,99.99
2022-12-19T08:48:25.465Z,99.99
2022-12-19T08:49:26.851Z,99.99
2022-12-19T08:50:27.154Z,99.99
2022-12-19T08:51:26.881Z,99.99
2022-12-19T08:52:26.731Z,99.99
2022-12-19T08:53:28.975Z,99.99
2022-12-19T08:54:28.215Z,99.99
2022-12-19T08:55:29.472Z,99.99
2022-12-19T08:56:27.886Z,99.99
2022-12-19T08:57:28.265Z,99.99
2022-12-19T08:58:28.613Z,99.99
2022-12-19T08:59:32.101Z,99.99
2022-12-19T09:00:29.242Z,99.99
2022-12-19T09:01:29.845Z,99.99
2022-12-19T09:02:30.936Z,99.99
2022-12-19T09:03:36.801Z,99.99
2022-12-19T09:05:59.315Z,99.99
2022-12-19T09:06:21.218Z,99.99
2022-12-19T09:07:20.066Z,99.99
2022-12-19T09:08:22.360Z,99.99
2022-12-19T09:09:20.673Z,99.99
2022-12-19T09:10:20.970Z,99.99
2022-12-19T09:11:23.583Z,99.99
2022-12-19T09:12:21.774Z,99.99
2022-12-19T09:13:22.067Z,99.99
2022-12-19T09:14:23.884Z,99.99
2022-12-19T09:15:23.752Z,99.99
2022-12-19T09:16:25.139Z,99.99
2022-12-19T09:17:24.469Z,99.99
2022-12-19T09:18:24.293Z,99.99
2022-12-19T09:19:25.663Z,99.99
2022-12-19T09:20:24.016Z,99.99
2022-12-19T09:21:26.527Z,99.99
2022-12-19T09:22:29.438Z,99.99
2022-12-19T09:23:24.584Z,99.99
2022-12-19T09:24:24.798Z,99.99
2022-12-19T09:25:25.101Z,99.99
2022-12-19T09:26:26.372Z,99.99
2022-12-19T09:27:25.627Z,99.99
2022-12-19T09:28:27.750Z,99.99
2022-12-19T09:29:26.571Z,99.99
2022-12-19T09:30:25.994Z,99.99
2022-12-19T09:31:28.059Z,99.99
2022-12-19T09:32:28.305Z,99.99
2022-12-19T09:33:26.633Z,99.99
2022-12-19T09:34:37.142Z,99.99
2022-12-19T09:35:30.566Z,99.99
2022-12-19T09:36:27.026Z,99.99
2022-12-19T09:37:27.363Z,99.99
2022-12-19T09:38:29.196Z,99.99
2022-12-19T09:39:28.144Z,99.99
2022-12-19T09:40:29.019Z,99.99
2022-12-19T09:41:28.591Z,99.99
2022-12-19T09:42:30.759Z,99.99
2022-12-19T09:43:30.047Z,99.99
2022-12-19T09:44:30.207Z,99.99
2022-12-19T09:45:32.665Z,99.99
2022-12-19T09:46:31.782Z,99.99
2022-12-19T09:47:30.101Z,99.99
2022-12-19T09:48:30.365Z,99.99
2022-12-19T09:49:30.966Z,99.99
2022-12-19T09:50:31.919Z,99.99
2022-12-19T09:51:32.249Z,99.99
2022-12-19T09:52:33.094Z,99.99
2022-12-19T09:53:31.745Z,99.99
2022-12-19T09:54:34.136Z,99.99
2022-12-19T09:55:32.455Z,99.99
2022-12-19T09:56:41.271Z,99.99
2022-12-19T09:57:33.974Z,99.99
2022-12-19T09:58:34.535Z,99.99
2022-12-19T09:59:41.293Z,99.99
2022-12-19T10:00:33.350Z,99.99
2022-12-19T10:01:35.733Z,99.99
2022-12-19T10:02:34.223Z,99.99
2022-12-19T10:03:40.422Z,99.99
2022-12-19T10:04:35.299Z,99.99
2022-12-19T10:06:01.028Z,99.99
2022-12-19T10:07:54.695Z,99.99
2022-12-19T10:08:34.100Z,99.99
2022-12-19T10:11:49.353Z,99.99
2022-12-19T10:13:11.058Z,99.99
2022-12-19T10:14:05.573Z,99.99
2022-12-19T10:15:03.938Z,99.99
2022-12-19T10:16:04.238Z,99.99
2022-12-19T10:18:04.742Z,99.99
2022-12-19T10:19:05.109Z,99.99
2022-12-19T10:20:05.375Z,99.99
2022-12-19T10:21:05.693Z,99.99
2022-12-19T10:22:18.151Z,99.99
2022-12-19T10:23:06.059Z,99.99
2022-12-19T10:24:06.283Z,99.99
2022-12-19T10:25:09.775Z,99.99
2022-12-19T10:26:06.692Z,99.99
2022-12-19T10:27:07.000Z,99.99
2022-12-19T10:28:09.166Z,99.99
2022-12-19T10:29:07.419Z,99.99
2022-12-19T10:30:07.628Z,99.99
2022-12-19T10:31:18.877Z,99.99
2022-12-19T10:32:08.706Z,99.99
2022-12-19T10:33:11.775Z,99.99
2022-12-19T10:34:10.599Z,99.99
2022-12-19T10:35:09.085Z,99.99
2022-12-19T10:36:09.502Z,99.99
2022-12-19T10:37:27.349Z,99.99
2022-12-19T10:38:12.678Z,99.99
2022-12-19T10:39:10.732Z,99.99
2022-12-19T10:40:17.645Z,99.99
2022-12-19T10:41:11.891Z,99.99
2022-12-19T10:42:12.122Z,99.99
2022-12-19T10:43:15.304Z,99.99
2022-12-19T10:44:11.681Z,99.99
2022-12-19T10:45:11.693Z,99.99
2022-12-19T10:46:12.162Z,99.99
2022-12-19T10:47:12.008Z,99.99
2022-12-19T10:48:12.348Z,99.99
2022-12-19T10:49:12.736Z,99.99
2022-12-19T10:50:14.018Z,99.99
2022-12-19T10:51:13.372Z,99.99
2022-12-19T10:52:15.670Z,99.99
2022-12-19T10:53:15.861Z,99.99
2022-12-19T10:54:14.093Z,99.99
2022-12-19T10:55:15.833Z,99.99
2022-12-19T10:56:14.553Z,99.99
2022-12-19T10:57:16.874Z,99.99
2022-12-19T10:58:16.117Z,99.99
2022-12-19T10:59:15.452Z,99.99
2022-12-19T11:00:15.681Z,99.99
2022-12-19T11:01:15.999Z,99.99
2022-12-19T11:02:17.317Z,99.99
2022-12-19T11:03:19.092Z,99.99
2022-12-19T11:04:16.862Z,99.99
2022-12-19T11:05:17.194Z,99.99
2022-12-19T11:06:17.506Z,99.99
2022-12-19T11:07:19.930Z,99.99
2022-12-19T11:08:20.171Z,99.99
2022-12-19T11:09:18.503Z,99.99
2022-12-19T11:11:48.490Z,99.99
2022-12-19T11:20:07.131Z,99.99
2022-12-19T11:32:43.591Z,99.99
2022-12-19T11:33:39.592Z,99.99
2022-12-19T11:34:40.884Z,99.99
2022-12-19T11:35:42.240Z,99.99
2022-12-19T11:36:41.645Z,99.99
2022-12-19T11:37:40.953Z,99.99
2022-12-19T11:38:41.203Z,99.99
2022-12-19T11:39:42.424Z,99.99
2022-12-19T11:40:46.707Z,99.99
2022-12-19T11:41:41.855Z,99.99
2022-12-19T11:42:42.087Z,99.99
2022-12-19T11:43:45.441Z,99.99
2022-12-19T11:44:44.683Z,99.99
2022-12-19T11:45:43.007Z,99.99
2022-12-19T11:46:43.183Z,99.99
2022-12-19T11:47:44.462Z,99.99
2022-12-19T11:48:43.809Z,99.99
2022-12-19T11:49:44.130Z,99.99
2022-12-19T11:50:45.877Z,99.99
2022-12-19T11:51:47.658Z,99.99
2022-12-19T11:53:45.142Z,99.99
2022-12-19T11:54:45.378Z,99.99
2022-12-19T11:55:46.672Z,99.99
2022-12-19T11:56:46.977Z,99.99
2022-12-19T11:57:48.242Z,99.99
2022-12-19T11:58:46.482Z,99.99
2022-12-19T11:59:46.703Z,99.99
2022-12-19T12:00:48.064Z,99.99
2022-12-19T12:01:48.461Z,99.99
2022-12-19T12:02:48.676Z,99.99
2022-12-19T12:03:58.339Z,99.99
2022-12-19T12:04:49.484Z,99.99
2022-12-19T12:05:50.829Z,99.99
2022-12-19T12:06:49.116Z,99.99
2022-12-19T12:09:00.250Z,99.99
2022-12-19T12:18:10.111Z,99.99
2022-12-19T12:35:56.640Z,99.99
2022-12-19T12:38:26.429Z,99.99
2022-12-19T12:39:06.825Z,99.99
2022-12-19T12:40:09.456Z,99.99
2022-12-19T12:41:08.136Z,99.99
2022-12-19T12:42:09.479Z,99.99
2022-12-19T12:43:07.885Z,99.99
2022-12-19T12:44:10.089Z,99.99
2022-12-19T12:45:10.896Z,99.99
2022-12-19T12:46:09.876Z,99.99
2022-12-19T12:47:12.046Z,99.99
2022-12-19T12:48:08.927Z,99.99
2022-12-19T12:49:09.387Z,99.99
2022-12-19T12:50:09.714Z,99.99
2022-12-19T12:51:10.091Z,99.99
2022-12-19T12:52:11.303Z,99.99
2022-12-19T12:53:12.650Z,99.99
2022-12-19T12:54:11.970Z,99.99
2022-12-19T12:55:12.235Z,99.99
2022-12-19T12:56:13.512Z,99.99
2022-12-19T12:57:12.763Z,99.99
2022-12-19T12:58:16.154Z,99.99
2022-12-19T12:59:12.489Z,99.99
2022-12-19T13:00:13.767Z,99.99
2022-12-19T13:01:13.059Z,99.99
2022-12-19T13:02:16.372Z,99.99
2022-12-19T13:03:13.980Z,99.99
2022-12-19T13:04:15.357Z,99.99
2022-12-19T13:05:14.079Z,99.99
2022-12-19T13:06:15.800Z,99.99
2022-12-19T13:07:16.626Z,99.99
2022-12-19T13:08:15.834Z,99.99
2022-12-19T13:09:15.115Z,99.99
2022-12-19T13:10:15.822Z,99.99
2022-12-19T13:11:15.580Z,99.99
2022-12-19T13:12:16.749Z,99.99
2022-12-19T13:13:22.521Z,99.99
2022-12-19T13:14:16.003Z,99.99
2022-12-19T13:15:16.307Z,99.99
2022-12-19T13:16:16.543Z,99.99
2022-12-19T13:17:18.728Z,99.99
2022-12-19T13:18:18.932Z,99.99
2022-12-19T13:19:25.796Z,99.99
2022-12-19T13:20:18.534Z,99.99
2022-12-19T13:21:19.847Z,99.99
2022-12-19T13:22:18.352Z,99.99
2022-12-19T13:23:20.618Z,99.99
2022-12-19T13:24:18.638Z,99.99
2022-12-19T13:25:20.799Z,99.99
2022-12-19T13:26:19.929Z,99.99
2022-12-19T13:27:20.868Z,99.99
2022-12-19T13:28:21.222Z,99.99
2022-12-19T13:29:19.519Z,99.99
2022-12-19T13:30:19.922Z,99.99
2022-12-19T13:31:22.867Z,99.99
2022-12-19T13:32:20.137Z,99.99
2022-12-19T13:33:22.511Z,99.99
2022-12-19T13:34:20.799Z,99.99
2022-12-19T13:37:51.541Z,99.99
2022-12-19T13:40:21.010Z,99.99
2022-12-19T13:41:19.606Z,99.99
2022-12-19T13:42:19.829Z,99.99
2022-12-19T13:43:22.060Z,99.99
2022-12-19T13:44:21.280Z,99.99
2022-12-19T13:45:21.521Z,99.99
2022-12-19T13:46:22.859Z,99.99
2022-12-19T13:47:24.080Z,99.99
2022-12-19T13:48:22.940Z,99.99
2022-12-19T13:49:23.616Z,99.99
2022-12-19T13:50:23.100Z,99.99
2022-12-19T13:51:23.907Z,99.99
2022-12-19T13:52:23.187Z,99.99
2022-12-19T13:53:22.438Z,99.99
2022-12-19T13:54:22.646Z,99.99
2022-12-19T13:55:23.840Z,99.99